createdAt,value
2022-09-24T00:04:43.993Z,100972.81
2022-09-24T00:09:50.969Z,100967.07
2022-09-24T00:14:58.003Z,100964.70
2022-09-24T00:20:03.786Z,100959.20
2022-09-24T00:25:28.056Z,100961.97
2022-09-24T00:30:33.560Z,100956.03
2022-09-24T00:35:42.673Z,100951.39
2022-09-24T00:40:48.544Z,100950.92
2022-09-24T00:45:57.066Z,100950.28
2022-09-24T00:51:04.281Z,100946.75
2022-09-24T00:56:14.373Z,100939.86
2022-09-24T01:01:22.533Z,100934.63
2022-09-24T01:06:28.441Z,100932.31
2022-09-24T01:11:42.851Z,100934.52
2022-09-24T01:17:17.069Z,100929.00
2022-09-24T01:22:43.856Z,100926.32
2022-09-24T01:28:21.091Z,100921.66
2022-09-24T01:33:29.548Z,100914.65
2022-09-24T01:38:38.718Z,100910.66
2022-09-24T01:43:45.906Z,100907.57
2022-09-24T01:48:51.853Z,100902.36
2022-09-24T01:54:03.776Z,100899.70
2022-09-24T01:59:28.733Z,100906.05
2022-09-24T02:04:37.175Z,100900.63
2022-09-24T02:09:44.797Z,100900.84
2022-09-24T02:14:54.514Z,100891.22
2022-09-24T02:20:02.727Z,100896.48
2022-09-24T02:25:11.382Z,100880.42
2022-09-24T02:30:17.397Z,100884.05
2022-09-24T02:35:23.523Z,100873.64
2022-09-24T02:40:29.373Z,100867.97
2022-09-24T02:45:34.846Z,100871.55
2022-09-24T02:50:40.258Z,100863.22
2022-09-24T02:55:45.658Z,100868.31
2022-09-24T03:00:51.057Z,100867.35
2022-09-24T03:05:56.470Z,100866.77
2022-09-24T03:11:01.881Z,100867.06
2022-09-24T03:16:08.657Z,100868.09
2022-09-24T03:21:16.347Z,100857.12
2022-09-24T03:26:21.881Z,100851.88
2022-09-24T03:31:27.754Z,100849.20
2022-09-24T03:36:33.539Z,100851.96
2022-09-24T03:41:39.428Z,100841.84
2022-09-24T03:46:45.075Z,100848.72
2022-09-24T03:51:52.412Z,100846.90
2022-09-24T03:56:58.872Z,100848.53
2022-09-24T04:02:04.352Z,100846.15
2022-09-24T04:07:09.735Z,100844.04
2022-09-24T04:12:15.205Z,100844.52
2022-09-24T04:17:20.585Z,100838.88
2022-09-24T04:22:28.888Z,100834.69
2022-09-24T04:27:35.979Z,100836.70
2022-09-24T04:32:42.703Z,100837.27
2022-09-24T04:37:48.537Z,100836.61
2022-09-24T04:42:53.916Z,100828.45
2022-09-24T04:47:59.371Z,100829.51
2022-09-24T04:53:05.392Z,100826.55
2022-09-24T04:58:11.375Z,100820.05
2022-09-24T05:03:17.212Z,100821.68
2022-09-24T05:08:22.685Z,100821.46
2022-09-24T05:13:28.569Z,100821.94
2022-09-24T05:18:36.289Z,100815.72
2022-09-24T05:23:41.747Z,100817.92
2022-09-24T05:28:47.320Z,100809.98
2022-09-24T05:33:52.759Z,100815.92
2022-09-24T05:38:58.320Z,100811.78
2022-09-24T05:44:05.031Z,100807.76
2022-09-24T05:49:11.228Z,100811.40
2022-09-24T05:54:17.289Z,100817.53
2022-09-24T05:59:22.749Z,100815.23
2022-09-24T06:04:28.146Z,100816.63
2022-09-24T06:09:33.542Z,100823.81
2022-09-24T06:14:39.032Z,100830.53
2022-09-24T06:19:44.419Z,100829.47
2022-09-24T06:24:51.516Z,100828.03
2022-09-24T06:29:56.904Z,100832.31
2022-09-24T06:35:02.275Z,100830.48
2022-09-24T06:40:09.517Z,100827.69
2022-09-24T06:45:15.085Z,100829.97
2022-09-24T06:50:20.588Z,100826.55
2022-09-24T06:55:26.235Z,100826.68
2022-09-24T07:00:31.768Z,100830.50
2022-09-24T07:05:43.213Z,100838.25
2022-09-24T07:10:52.716Z,100841.81
2022-09-24T07:15:58.167Z,100841.22
2022-09-24T07:21:03.589Z,100841.68
2022-09-24T07:26:08.993Z,100843.99
2022-09-24T07:31:14.522Z,100851.36
2022-09-24T07:36:19.982Z,100852.23
2022-09-24T07:41:26.021Z,100855.19
2022-09-24T07:46:31.592Z,100860.17
2022-09-24T07:51:37.176Z,100854.88
2022-09-24T07:56:42.639Z,100859.84
2022-09-24T08:01:48.106Z,100866.27
2022-09-24T08:06:53.591Z,100866.67
2022-09-24T08:11:58.981Z,100866.95
2022-09-24T08:17:04.378Z,100877.94
2022-09-24T08:22:09.845Z,100869.58
2022-09-24T08:27:17.482Z,100869.99
2022-09-24T08:32:22.615Z,100869.55
2022-09-24T08:37:29.440Z,100875.56
2022-09-24T08:42:58.566Z,100882.73
2022-09-24T08:48:16.256Z,100879.14
2022-09-24T08:53:27.967Z,100883.58
2022-09-24T08:58:51.511Z,100880.67
2022-09-24T09:04:16.426Z,100887.08
2022-09-24T09:09:41.471Z,100881.08
2022-09-24T09:15:07.083Z,100878.23
2022-09-24T09:20:15.529Z,100879.62
2022-09-24T09:25:26.210Z,100875.45
2022-09-24T09:30:43.901Z,100881.80
2022-09-24T09:36:00.906Z,100880.97
2022-09-24T09:41:14.892Z,100872.53
2022-09-24T09:46:23.419Z,100871.70
2022-09-24T09:51:31.913Z,100873.50
2022-09-24T09:56:40.372Z,100875.78
2022-09-24T10:01:49.059Z,100869.21
2022-09-24T10:07:15.418Z,100867.89
2022-09-24T10:12:24.385Z,100868.98
2022-09-24T10:17:38.476Z,100869.48
2022-09-24T10:22:46.915Z,100867.65
2022-09-24T10:27:57.331Z,100864.86
2022-09-24T10:33:05.828Z,100868.05
2022-09-24T10:38:24.575Z,100872.80
2022-09-24T10:43:31.310Z,100874.62
2022-09-24T10:48:48.795Z,100876.09
2022-09-24T10:54:18.696Z,100878.57
2022-09-24T10:59:36.123Z,100875.37
2022-09-24T11:04:53.566Z,100878.78
2022-09-24T11:10:26.381Z,100873.91
2022-09-24T11:15:54.495Z,100874.70
2022-09-24T11:21:05.810Z,100870.42
2022-09-24T11:26:20.182Z,100864.31
2022-09-24T11:31:43.945Z,100865.41
2022-09-24T11:36:58.310Z,100860.16
2022-09-24T11:42:09.969Z,100852.66
2022-09-24T11:47:45.189Z,100858.72
2022-09-24T11:52:53.641Z,100857.77
2022-09-24T11:58:17.712Z,100859.63
2022-09-24T12:03:29.133Z,100863.59
2022-09-24T12:08:40.255Z,100866.61
2022-09-24T12:13:52.484Z,100863.90
2022-09-24T12:19:17.560Z,100864.92
2022-09-24T12:24:34.961Z,100860.49
2022-09-24T12:30:16.758Z,100859.72
2022-09-24T12:35:31.465Z,100857.70
2022-09-24T12:40:45.689Z,100856.92
2022-09-24T12:45:57.548Z,100857.45
2022-09-24T12:51:06.090Z,100854.23
2022-09-24T12:56:12.790Z,100851.44
2022-09-24T13:01:30.753Z,100854.64
2022-09-24T13:06:38.753Z,100845.87
2022-09-24T13:11:44.482Z,100846.28
2022-09-24T13:16:53.385Z,100850.73
2022-09-24T13:22:01.436Z,100847.73
2022-09-24T13:27:21.932Z,100844.57
2022-09-24T13:32:28.263Z,100852.36
2022-09-24T13:37:36.721Z,100850.36
2022-09-24T13:42:48.131Z,100840.98
2022-09-24T13:47:59.345Z,100838.27
2022-09-24T13:53:10.517Z,100835.84
2022-09-24T13:58:30.034Z,100835.55
2022-09-24T14:03:37.351Z,100834.98
2022-09-24T14:08:45.632Z,100831.09
2022-09-24T14:13:52.276Z,100829.52
2022-09-24T14:19:06.268Z,100824.70
2022-09-24T14:24:17.600Z,100821.13
2022-09-24T14:29:35.008Z,100820.77
2022-09-24T14:34:45.362Z,100823.30
2022-09-24T14:39:53.805Z,100821.59
2022-09-24T14:45:01.024Z,100818.88
2022-09-24T14:50:09.544Z,100817.52
2022-09-24T14:55:20.977Z,100819.16
2022-09-24T15:00:28.761Z,100825.88
2022-09-24T15:05:35.132Z,100819.02
2022-09-24T15:10:41.118Z,100817.67
2022-09-24T15:15:47.923Z,100816.89
2022-09-24T15:20:53.303Z,100813.20
2022-09-24T15:25:58.710Z,100815.11
2022-09-24T15:31:04.154Z,100820.09
2022-09-24T15:36:10.913Z,100818.66
2022-09-24T15:41:16.647Z,100812.08
2022-09-24T15:46:22.127Z,100805.94
2022-09-24T15:51:27.614Z,100809.06
2022-09-24T15:56:34.646Z,100805.74
2022-09-24T16:01:40.279Z,100807.50
2022-09-24T16:06:45.764Z,100813.54
2022-09-24T16:11:51.766Z,100807.61
2022-09-24T16:16:57.156Z,100813.28
2022-09-24T16:22:02.559Z,100810.58
2022-09-24T16:27:08.014Z,100812.66
2022-09-24T16:32:14.063Z,100817.17
2022-09-24T16:37:19.466Z,100815.77
2022-09-24T16:42:26.520Z,100815.23
2022-09-24T16:47:31.919Z,100825.39
2022-09-24T16:52:37.389Z,100823.95
2022-09-24T16:57:42.951Z,100825.83
2022-09-24T17:02:48.472Z,100823.67
2022-09-24T17:07:53.885Z,100826.01
2022-09-24T17:12:59.518Z,100821.75
2022-09-24T17:18:05.057Z,100817.09
2022-09-24T17:23:10.572Z,100830.75
2022-09-24T17:28:16.024Z,100827.46
2022-09-24T17:33:42.210Z,100827.82
2022-09-24T17:38:31.996Z,100837.24
2022-09-24T17:43:38.226Z,100838.58
2022-09-24T17:48:46.182Z,100843.98
2022-09-24T17:53:53.655Z,100839.19
2022-09-24T17:58:59.450Z,100838.17
2022-09-24T18:04:07.164Z,100841.97
2022-09-24T18:09:14.166Z,100844.02
2022-09-24T18:14:22.354Z,100847.32
2022-09-24T18:19:27.913Z,100849.36
2022-09-24T18:24:33.575Z,100850.19
2022-09-24T18:29:40.479Z,100850.19
2022-09-24T18:34:45.985Z,100852.14
2022-09-24T18:39:51.451Z,100848.33
2022-09-24T18:44:56.915Z,100849.41
2022-09-24T18:50:02.335Z,100858.73
2022-09-24T18:55:10.739Z,100854.42
2022-09-24T19:00:17.993Z,100856.26
2022-09-24T19:05:23.449Z,100860.12
2022-09-24T19:10:30.197Z,100858.39
2022-09-24T19:15:40.062Z,100866.77
2022-09-24T19:20:51.155Z,100863.00
2022-09-24T19:26:02.645Z,100863.97
2022-09-24T19:31:10.560Z,100863.97
2022-09-24T19:36:15.980Z,100862.81
2022-09-24T19:41:27.173Z,100861.91
2022-09-24T19:46:33.624Z,100863.97
2022-09-24T19:51:40.305Z,100868.86
2022-09-24T19:56:45.689Z,100860.74
2022-09-24T20:01:52.454Z,100868.55
2022-09-24T20:07:02.304Z,100867.92
2022-09-24T20:12:05.775Z,100864.09
2022-09-24T20:17:11.944Z,100868.61
2022-09-24T20:22:17.679Z,100873.73
2022-09-24T20:27:41.132Z,100874.44
2022-09-24T20:32:46.807Z,100870.98
2022-09-24T20:37:52.891Z,100879.02
2022-09-24T20:42:58.668Z,100874.60
2022-09-24T20:48:04.073Z,100870.94
2022-09-24T20:53:09.640Z,100868.02
2022-09-24T20:58:17.246Z,100868.88
2022-09-24T21:03:42.713Z,100871.30
2022-09-24T21:08:40.515Z,100876.90
2022-09-24T21:13:51.757Z,100872.81
2022-09-24T21:18:57.676Z,100876.30
2022-09-24T21:24:03.877Z,100878.25
2022-09-24T21:29:18.261Z,100875.80
2022-09-24T21:34:23.735Z,100872.73
2022-09-24T21:39:29.303Z,100867.67
2022-09-24T21:44:34.719Z,100867.03
2022-09-24T21:49:40.139Z,100854.16
2022-09-24T21:54:45.544Z,100855.13
2022-09-24T21:59:59.721Z,100860.52
2022-09-24T22:05:05.612Z,100853.58
2022-09-24T22:10:11.474Z,100862.30
2022-09-24T22:15:17.392Z,100862.88
2022-09-24T22:20:22.839Z,100859.38
2022-09-24T22:25:28.310Z,100859.76
2022-09-24T22:30:33.833Z,100861.94
2022-09-24T22:35:50.102Z,100852.38
2022-09-24T22:40:55.583Z,100851.91
2022-09-24T22:46:02.925Z,100849.69
2022-09-24T22:51:09.917Z,100844.20
2022-09-24T22:56:18.806Z,100848.72
2022-09-24T23:01:27.470Z,100847.23
2022-09-24T23:06:34.803Z,100843.34
2022-09-24T23:11:40.976Z,100845.41
2022-09-24T23:16:47.020Z,100848.96
2022-09-24T23:21:52.499Z,100849.06
2022-09-24T23:26:57.980Z,100849.42
2022-09-24T23:32:04.225Z,100846.45
2022-09-24T23:37:10.954Z,100844.53
2022-09-24T23:42:16.336Z,100843.45
2022-09-24T23:47:22.658Z,100843.36
2022-09-24T23:52:28.060Z,100845.56
2022-09-24T23:57:33.623Z,100846.53
